createdAt,value
2019-01-15T00:01:59.788Z,1.40
2019-01-15T00:04:29.957Z,1.30
2019-01-15T00:07:00.151Z,1.40
2019-01-15T00:09:30.320Z,1.30
2019-01-15T00:12:07.611Z,1.40
2019-01-15T00:14:32.420Z,1.30
2019-01-15T00:17:02.634Z,1.30
2019-01-15T00:19:32.892Z,1.20
2019-01-15T00:22:03.051Z,1.20
2019-01-15T00:24:33.203Z,1.20
2019-01-15T00:27:03.399Z,1.20
2019-01-15T00:29:33.573Z,1.30
2019-01-15T00:32:03.735Z,1.20
2019-01-15T00:34:33.956Z,1.20
2019-01-15T00:37:04.211Z,1.20
2019-01-15T00:39:34.407Z,1.20
2019-01-15T00:42:04.651Z,1.20
2019-01-15T00:44:34.826Z,1.20
2019-01-15T00:47:05.008Z,1.20
2019-01-15T00:49:35.159Z,1.10
2019-01-15T00:52:05.447Z,1.00
2019-01-15T00:54:35.723Z,1.00
2019-01-15T00:57:05.895Z,1.10
2019-01-15T00:59:36.091Z,1.10
2019-01-15T01:02:07.371Z,1.10
2019-01-15T01:04:37.554Z,1.10
2019-01-15T01:07:08.823Z,1.10
2019-01-15T01:09:39.019Z,1.20
2019-01-15T01:12:09.195Z,1.20
2019-01-15T01:14:39.343Z,1.20
2019-01-15T01:17:09.551Z,1.10
2019-01-15T01:19:39.705Z,1.10
2019-01-15T01:22:09.867Z,1.10
2019-01-15T01:24:40.087Z,1.10
2019-01-15T01:27:10.259Z,1.10
2019-01-15T01:29:40.468Z,1.10
2019-01-15T01:32:10.622Z,1.10
2019-01-15T01:34:40.815Z,1.10
2019-01-15T01:37:11.013Z,1.10
2019-01-15T01:39:41.176Z,1.10
2019-01-15T01:42:11.350Z,1.00
2019-01-15T01:44:41.522Z,1.20
2019-01-15T01:47:11.690Z,1.30
2019-01-15T01:49:41.843Z,1.40
2019-01-15T01:52:12.027Z,1.40
2019-01-15T01:54:42.318Z,1.50
2019-01-15T01:57:12.465Z,1.60
2019-01-15T01:59:42.749Z,1.60
2019-01-15T02:02:12.988Z,1.60
2019-01-15T02:04:44.243Z,1.70
2019-01-15T02:07:15.999Z,1.80
2019-01-15T02:09:46.205Z,1.80
2019-01-15T02:12:16.368Z,1.90
2019-01-15T02:14:46.515Z,2.00
2019-01-15T02:17:16.728Z,2.00
2019-01-15T02:19:46.916Z,2.10
2019-01-15T02:22:17.084Z,2.10
2019-01-15T02:24:47.231Z,2.10
2019-01-15T02:27:17.764Z,2.20
2019-01-15T02:29:47.926Z,2.20
2019-01-15T02:32:18.080Z,2.30
2019-01-15T02:34:48.271Z,2.30
2019-01-15T02:37:18.431Z,2.30
2019-01-15T02:39:48.611Z,2.40
2019-01-15T02:42:18.765Z,2.40
2019-01-15T02:44:49.057Z,2.40
2019-01-15T02:47:19.204Z,2.50
2019-01-15T02:49:49.377Z,2.50
2019-01-15T02:52:19.550Z,2.50
2019-01-15T02:54:49.771Z,2.60
2019-01-15T02:57:19.941Z,2.60
2019-01-15T02:59:54.731Z,2.60
2019-01-15T03:02:24.971Z,2.70
2019-01-15T03:04:55.136Z,2.70
2019-01-15T03:07:25.300Z,2.70
2019-01-15T03:09:55.451Z,2.70
2019-01-15T03:12:25.622Z,2.70
2019-01-15T03:14:55.772Z,2.70
2019-01-15T03:17:25.960Z,2.70
2019-01-15T03:19:56.141Z,2.70
2019-01-15T03:22:26.331Z,2.70
2019-01-15T03:24:56.516Z,2.70
2019-01-15T03:27:26.700Z,2.80
2019-01-15T03:29:56.863Z,2.80
2019-01-15T03:32:27.052Z,2.80
2019-01-15T03:34:57.240Z,2.80
2019-01-15T03:37:27.386Z,2.80
2019-01-15T03:39:57.544Z,2.80
2019-01-15T03:42:27.708Z,2.80
2019-01-15T03:44:58.003Z,2.70
2019-01-15T03:47:28.156Z,2.80
2019-01-15T03:49:58.326Z,2.70
2019-01-15T03:52:28.494Z,2.70
2019-01-15T03:54:58.646Z,2.70
2019-01-15T03:57:28.826Z,2.70
2019-01-15T03:59:58.972Z,2.70
2019-01-15T04:02:29.302Z,2.60
2019-01-15T04:04:59.784Z,2.60
2019-01-15T04:07:30.169Z,2.60
2019-01-15T04:10:00.423Z,2.60
2019-01-15T04:12:30.629Z,2.60
2019-01-15T04:15:02.285Z,2.50
2019-01-15T04:17:32.437Z,2.50
2019-01-15T04:20:02.601Z,2.50
2019-01-15T04:22:32.759Z,2.50
2019-01-15T04:25:03.007Z,2.60
2019-01-15T04:27:33.203Z,2.60
2019-01-15T04:30:04.608Z,2.60
2019-01-15T04:32:34.941Z,2.60
2019-01-15T04:35:06.628Z,2.60
2019-01-15T04:37:36.771Z,2.60
2019-01-15T04:40:08.527Z,2.60
2019-01-15T04:42:38.702Z,2.60
2019-01-15T04:45:10.875Z,2.60
2019-01-15T04:47:41.020Z,2.60
2019-01-15T04:50:11.403Z,2.60
2019-01-15T04:52:43.049Z,2.60
2019-01-15T04:55:13.995Z,2.50
2019-01-15T04:57:44.130Z,2.50
2019-01-15T05:00:16.659Z,2.50
2019-01-15T05:02:48.195Z,2.60
2019-01-15T05:05:19.534Z,2.50
2019-01-15T05:07:49.816Z,2.50
2019-01-15T05:10:21.163Z,2.50
2019-01-15T05:12:51.302Z,2.40
2019-01-15T05:15:21.514Z,2.50
2019-01-15T05:17:51.657Z,2.50
2019-01-15T05:20:21.832Z,2.50
2019-01-15T05:22:52.020Z,2.60
2019-01-15T05:25:22.305Z,2.60
2019-01-15T05:27:52.571Z,2.70
2019-01-15T05:30:24.895Z,2.80
2019-01-15T05:32:55.080Z,2.80
2019-01-15T05:35:25.583Z,2.90
2019-01-15T05:37:55.751Z,3.00
2019-01-15T05:40:25.993Z,3.00
2019-01-15T05:42:56.120Z,3.10
2019-01-15T05:45:32.347Z,3.10
2019-01-15T05:48:06.868Z,3.20
2019-01-15T05:50:42.115Z,3.20
2019-01-15T05:53:12.503Z,3.20
2019-01-15T05:55:42.671Z,3.20
2019-01-15T05:58:12.819Z,3.30
2019-01-15T06:00:43.016Z,3.30
2019-01-15T06:03:13.189Z,3.40
2019-01-15T06:05:43.352Z,3.40
2019-01-15T06:08:13.681Z,3.50
2019-01-15T06:10:44.919Z,3.50
2019-01-15T06:13:15.438Z,3.50
2019-01-15T06:15:45.771Z,3.60
2019-01-15T06:18:18.308Z,3.60
2019-01-15T06:20:48.477Z,3.60
2019-01-15T06:23:18.648Z,3.60
2019-01-15T06:25:48.820Z,3.70
2019-01-15T06:28:19.019Z,3.70
2019-01-15T06:30:49.512Z,3.70
2019-01-15T06:33:19.672Z,3.80
2019-01-15T06:35:50.056Z,3.80
2019-01-15T06:38:20.221Z,3.80
2019-01-15T06:40:50.457Z,3.80
2019-01-15T06:43:20.634Z,3.90
2019-01-15T06:45:50.812Z,3.80
2019-01-15T06:48:20.977Z,3.90
2019-01-15T06:50:51.214Z,3.90
2019-01-15T06:53:21.374Z,3.90
2019-01-15T06:55:51.528Z,3.90
2019-01-15T06:58:21.708Z,3.90
2019-01-15T07:00:51.866Z,3.90
2019-01-15T07:03:22.081Z,3.90
2019-01-15T07:05:52.235Z,3.90
2019-01-15T07:08:22.395Z,3.90
2019-01-15T07:10:52.583Z,3.90
2019-01-15T07:13:22.742Z,3.80
2019-01-15T07:15:54.108Z,3.80
2019-01-15T07:18:24.371Z,3.90
2019-01-15T07:20:54.538Z,3.90
2019-01-15T07:23:24.710Z,3.90
2019-01-15T07:25:54.884Z,4.00
2019-01-15T07:28:30.323Z,4.00
2019-01-15T07:31:01.177Z,4.00
2019-01-15T07:33:31.879Z,4.00
2019-01-15T07:36:02.055Z,4.10
2019-01-15T07:38:32.211Z,4.10
2019-01-15T07:41:02.409Z,4.10
2019-01-15T07:43:32.569Z,4.10
2019-01-15T07:46:03.066Z,4.10
2019-01-15T07:48:33.233Z,4.10
2019-01-15T07:51:03.387Z,4.10
2019-01-15T07:53:33.564Z,4.10
2019-01-15T07:56:03.756Z,4.10
2019-01-15T07:58:33.914Z,4.10
2019-01-15T08:01:05.407Z,4.20
2019-01-15T08:03:39.573Z,4.30
2019-01-15T08:06:09.752Z,4.30
2019-01-15T08:08:39.912Z,4.40
2019-01-15T08:11:10.087Z,4.40
2019-01-15T08:13:40.244Z,4.40
2019-01-15T08:16:10.455Z,4.60
2019-01-15T08:18:40.641Z,4.70
2019-01-15T08:21:10.883Z,4.90
2019-01-15T08:23:41.068Z,4.90
2019-01-15T08:26:11.251Z,4.90
2019-01-15T08:28:41.427Z,4.90
2019-01-15T08:31:11.619Z,4.90
2019-01-15T08:33:41.764Z,4.90
2019-01-15T08:36:11.993Z,5.00
2019-01-15T08:38:42.135Z,4.90
2019-01-15T08:41:12.311Z,4.90
2019-01-15T08:43:42.500Z,5.00
2019-01-15T08:46:12.672Z,5.10
2019-01-15T08:48:43.344Z,5.30
2019-01-15T08:51:13.991Z,5.50
2019-01-15T08:53:44.965Z,5.80
2019-01-15T08:56:15.407Z,5.90
2019-01-15T08:58:45.581Z,5.90
2019-01-15T09:01:15.746Z,6.10
2019-01-15T09:03:45.918Z,6.10
2019-01-15T09:06:16.084Z,6.10
2019-01-15T09:08:46.262Z,6.20
2019-01-15T09:11:16.464Z,6.20
2019-01-15T09:13:46.779Z,6.20
2019-01-15T09:16:16.935Z,6.20
2019-01-15T09:18:47.115Z,6.30
2019-01-15T09:21:17.351Z,6.40
2019-01-15T09:23:47.515Z,6.60
2019-01-15T09:26:17.669Z,6.80
2019-01-15T09:28:48.959Z,6.90
2019-01-15T09:31:19.125Z,6.90
2019-01-15T09:33:49.302Z,6.70
2019-01-15T09:36:19.479Z,6.70
2019-01-15T09:38:49.673Z,6.40
2019-01-15T09:41:19.820Z,6.40
2019-01-15T09:43:49.986Z,6.40
2019-01-15T09:46:20.151Z,6.40
2019-01-15T09:48:50.418Z,6.30
2019-01-15T09:51:20.579Z,6.20
2019-01-15T09:53:53.375Z,6.20
2019-01-15T09:56:23.558Z,6.30
2019-01-15T09:58:53.733Z,6.30
2019-01-15T10:01:23.922Z,6.30
2019-01-15T10:03:54.064Z,6.30
2019-01-15T10:06:24.232Z,6.40
2019-01-15T10:08:54.372Z,6.40
2019-01-15T10:11:24.544Z,6.40
2019-01-15T10:13:54.713Z,6.40
2019-01-15T10:16:24.883Z,6.50
2019-01-15T10:18:55.040Z,6.60
2019-01-15T10:21:25.191Z,6.70
2019-01-15T10:23:55.375Z,6.70
2019-01-15T10:26:25.545Z,6.70
2019-01-15T10:28:55.748Z,6.70
2019-01-15T10:32:10.031Z,6.80
2019-01-15T10:34:41.022Z,6.80
2019-01-15T10:37:11.186Z,6.80
2019-01-15T10:39:41.381Z,6.70
2019-01-15T10:42:11.559Z,6.70
2019-01-15T10:44:48.462Z,6.90
2019-01-15T10:47:13.718Z,7.00
2019-01-15T10:49:44.944Z,7.00
2019-01-15T10:52:15.083Z,7.00
2019-01-15T10:54:45.257Z,7.00
2019-01-15T10:57:15.403Z,7.10
2019-01-15T10:59:45.564Z,7.10
2019-01-15T11:02:15.738Z,7.10
2019-01-15T11:04:45.887Z,7.20
2019-01-15T11:07:16.039Z,7.10
2019-01-15T11:09:46.216Z,7.10
2019-01-15T11:12:18.223Z,7.10
2019-01-15T11:14:55.831Z,7.10
2019-01-15T11:17:20.744Z,7.00
2019-01-15T11:19:50.919Z,7.10
2019-01-15T11:22:21.084Z,7.00
2019-01-15T11:24:51.255Z,7.10
2019-01-15T11:27:21.483Z,7.20
2019-01-15T11:29:51.652Z,7.20
2019-01-15T11:32:21.799Z,7.20
2019-01-15T11:34:52.039Z,7.10
2019-01-15T11:37:22.224Z,7.10
2019-01-15T11:39:52.399Z,7.10
2019-01-15T11:42:23.659Z,7.00
2019-01-15T11:45:03.394Z,7.20
2019-01-15T11:47:31.019Z,7.20
2019-01-15T11:50:01.201Z,7.30
2019-01-15T11:52:32.422Z,7.30
2019-01-15T11:55:02.593Z,7.30
2019-01-15T11:57:32.740Z,7.30
2019-01-15T12:00:03.141Z,7.30
2019-01-15T12:02:48.242Z,7.30
2019-01-15T12:05:36.004Z,7.40
2019-01-15T12:08:29.303Z,7.40
2019-01-15T12:11:17.316Z,7.40
2019-01-15T12:14:12.471Z,7.30
2019-01-15T12:17:10.719Z,7.30
2019-01-15T12:20:00.235Z,7.40
2019-01-15T12:22:48.091Z,7.60
2019-01-15T12:25:30.545Z,7.60
2019-01-15T12:28:19.652Z,7.70
2019-01-15T12:31:07.551Z,7.80
2019-01-15T12:34:01.133Z,7.70
2019-01-15T12:36:54.375Z,7.70
2019-01-15T12:39:43.507Z,7.60
2019-01-15T12:42:31.239Z,7.60
2019-01-15T12:45:32.348Z,7.40
2019-01-15T12:48:20.069Z,7.40
2019-01-15T12:51:09.188Z,7.40
2019-01-15T12:54:04.083Z,7.40
2019-01-15T12:56:51.883Z,7.40
2019-01-15T12:59:39.564Z,7.40
2019-01-15T13:02:28.015Z,7.30
2019-01-15T13:05:13.088Z,7.30
2019-01-15T13:08:08.042Z,7.30
2019-01-15T13:10:56.041Z,7.20
2019-01-15T13:13:44.967Z,7.10
2019-01-15T13:16:40.860Z,7.10
2019-01-15T13:19:39.039Z,7.10
2019-01-15T13:22:25.980Z,7.20
2019-01-15T13:25:30.187Z,7.00
2019-01-15T13:28:34.487Z,7.10
2019-01-15T13:31:24.131Z,7.00
2019-01-15T13:34:08.564Z,7.10
2019-01-15T13:36:47.122Z,7.10
2019-01-15T13:39:27.843Z,7.00
2019-01-15T13:42:29.243Z,7.00
2019-01-15T13:45:28.415Z,7.00
2019-01-15T13:48:26.570Z,7.10
2019-01-15T13:51:18.474Z,7.00
2019-01-15T13:54:07.571Z,7.00
2019-01-15T13:56:47.407Z,7.00
2019-01-15T13:59:27.983Z,6.90
2019-01-15T14:02:29.467Z,7.00
2019-01-15T14:05:22.899Z,7.00
2019-01-15T14:08:10.791Z,6.90
2019-01-15T14:11:00.713Z,7.00
2019-01-15T14:13:52.864Z,6.90
2019-01-15T14:16:46.232Z,7.00
2019-01-15T14:19:35.340Z,6.90
2019-01-15T14:22:23.386Z,6.90
2019-01-15T14:25:27.968Z,6.90
2019-01-15T14:28:07.392Z,6.90
2019-01-15T14:31:02.566Z,7.00
2019-01-15T14:34:10.088Z,7.00
2019-01-15T14:36:58.019Z,7.00
2019-01-15T14:39:50.135Z,6.90
2019-01-15T14:42:42.093Z,6.90
2019-01-15T14:45:30.317Z,6.90
2019-01-15T14:48:25.211Z,6.90
2019-01-15T14:51:14.338Z,6.90
2019-01-15T14:54:03.041Z,6.90
2019-01-15T14:56:52.220Z,6.90
2019-01-15T14:59:52.270Z,6.90
2019-01-15T15:02:59.937Z,6.90
2019-01-15T15:05:51.835Z,6.80
2019-01-15T15:08:39.633Z,6.90
2019-01-15T15:11:32.020Z,6.80
2019-01-15T15:14:20.383Z,6.80
2019-01-15T15:17:12.567Z,6.80
2019-01-15T15:20:19.907Z,6.80
2019-01-15T15:23:07.616Z,6.80
2019-01-15T15:25:48.143Z,6.80
2019-01-15T15:28:26.183Z,6.80
2019-01-15T15:31:18.359Z,6.80
2019-01-15T15:34:13.295Z,6.80
2019-01-15T15:37:11.082Z,6.80
2019-01-15T15:40:01.914Z,6.80
2019-01-15T15:43:06.159Z,6.80
2019-01-15T15:45:58.211Z,6.80
2019-01-15T15:48:47.314Z,6.80
2019-01-15T15:51:36.427Z,6.80
2019-01-15T15:54:24.603Z,6.80
2019-01-15T15:57:13.880Z,6.80
2019-01-15T16:00:18.447Z,6.80
2019-01-15T16:03:13.563Z,6.70
2019-01-15T16:06:11.853Z,6.70
2019-01-15T16:08:57.580Z,6.70
2019-01-15T16:11:41.715Z,6.60
2019-01-15T16:14:20.891Z,6.70
2019-01-15T16:17:01.882Z,6.60
2019-01-15T16:19:49.607Z,6.60
2019-01-15T16:22:41.771Z,6.70
2019-01-15T16:25:31.740Z,6.70
2019-01-15T16:28:17.913Z,6.60
2019-01-15T16:31:13.227Z,6.60
2019-01-15T16:34:05.173Z,6.60
2019-01-15T16:36:56.623Z,6.60
2019-01-15T16:39:45.751Z,6.60
2019-01-15T16:42:40.916Z,6.60
2019-01-15T16:45:34.184Z,6.60
2019-01-15T16:48:22.048Z,6.60
2019-01-15T16:51:14.321Z,6.60
2019-01-15T16:54:09.253Z,6.60
2019-01-15T16:57:16.571Z,6.60
2019-01-15T17:00:08.723Z,6.60
2019-01-15T17:02:53.444Z,6.60
2019-01-15T17:05:51.603Z,6.60
2019-01-15T17:08:46.539Z,6.60
2019-01-15T17:11:29.515Z,6.60
2019-01-15T17:14:27.656Z,6.60
2019-01-15T17:17:22.626Z,6.60
2019-01-15T17:20:27.114Z,6.60
2019-01-15T17:23:07.716Z,6.60
2019-01-15T17:26:09.225Z,6.60
2019-01-15T17:28:57.369Z,6.60
2019-01-15T17:31:55.691Z,6.60
2019-01-15T17:34:54.646Z,6.60
2019-01-15T17:37:54.483Z,6.60
2019-01-15T17:40:37.917Z,6.60
2019-01-15T17:43:26.249Z,6.60
2019-01-15T17:46:15.204Z,6.60
2019-01-15T17:49:03.247Z,6.60
2019-01-15T17:51:51.074Z,6.60
2019-01-15T17:54:49.176Z,6.60
2019-01-15T17:57:41.350Z,6.60
2019-01-15T18:00:27.027Z,6.60
2019-01-15T18:03:22.144Z,6.60
2019-01-15T18:06:11.238Z,6.60
2019-01-15T18:08:59.374Z,6.60
2019-01-15T18:11:48.720Z,6.60
2019-01-15T18:14:40.792Z,6.60
2019-01-15T18:17:38.947Z,6.60
2019-01-15T18:20:27.283Z,6.60
2019-01-15T18:23:27.946Z,6.60
2019-01-15T18:26:15.829Z,6.60
2019-01-15T18:29:10.736Z,6.60
2019-01-15T18:32:07.204Z,6.60
2019-01-15T18:34:44.528Z,6.60
2019-01-15T18:37:33.694Z,6.60
2019-01-15T18:40:22.922Z,6.60
2019-01-15T18:43:18.174Z,6.60
2019-01-15T18:46:13.501Z,6.60
2019-01-15T18:49:02.612Z,6.60
2019-01-15T18:52:00.979Z,6.60
2019-01-15T18:54:56.250Z,6.60
2019-01-15T18:57:41.074Z,6.70
2019-01-15T19:00:35.551Z,6.60
2019-01-15T19:03:23.560Z,6.60
2019-01-15T19:06:24.819Z,6.60
2019-01-15T19:09:12.715Z,6.60
2019-01-15T19:12:07.688Z,6.60
2019-01-15T19:15:05.866Z,6.60
2019-01-15T19:17:47.550Z,6.60
2019-01-15T19:20:30.699Z,6.60
2019-01-15T19:23:30.114Z,6.60
2019-01-15T19:26:09.302Z,6.60
2019-01-15T19:28:57.365Z,6.60
2019-01-15T19:31:46.516Z,6.60
2019-01-15T19:34:34.417Z,6.70
2019-01-15T19:37:26.320Z,6.70
2019-01-15T19:40:10.855Z,6.60
2019-01-15T19:42:58.997Z,6.70
2019-01-15T19:45:52.211Z,6.70
2019-01-15T19:48:47.384Z,6.70
2019-01-15T19:51:36.515Z,6.70
2019-01-15T19:54:19.331Z,6.70
2019-01-15T19:57:01.016Z,6.70
2019-01-15T19:59:48.751Z,6.70
2019-01-15T20:02:40.088Z,6.70
2019-01-15T20:05:35.369Z,6.70
2019-01-15T20:08:27.529Z,6.70
2019-01-15T20:11:15.387Z,6.70
2019-01-15T20:14:16.990Z,6.70
2019-01-15T20:17:06.104Z,6.70
2019-01-15T20:19:58.203Z,6.70
2019-01-15T20:22:47.257Z,6.70
2019-01-15T20:25:29.020Z,6.70
2019-01-15T20:28:18.136Z,6.70
2019-01-15T20:31:10.188Z,6.70
2019-01-15T20:34:17.656Z,6.70
2019-01-15T20:37:09.709Z,6.70
2019-01-15T20:40:07.851Z,6.70
2019-01-15T20:43:02.905Z,6.70
2019-01-15T20:45:47.171Z,6.70
2019-01-15T20:48:36.439Z,6.60
2019-01-15T20:51:24.705Z,6.70
2019-01-15T20:54:12.681Z,6.60
2019-01-15T20:57:02.383Z,6.70
2019-01-15T20:59:42.900Z,6.60
2019-01-15T21:02:32.012Z,6.60
2019-01-15T21:05:19.676Z,6.60
2019-01-15T21:08:04.721Z,6.60
2019-01-15T21:10:52.448Z,6.60
2019-01-15T21:13:56.684Z,6.60
2019-01-15T21:16:48.832Z,6.50
2019-01-15T21:19:40.804Z,6.60
2019-01-15T21:22:36.792Z,6.50
2019-01-15T21:25:35.297Z,6.50
2019-01-15T21:28:23.472Z,6.60
2019-01-15T21:31:17.068Z,6.60
2019-01-15T21:34:15.536Z,6.60
2019-01-15T21:37:13.314Z,6.60
2019-01-15T21:39:55.547Z,6.60
2019-01-15T21:42:41.133Z,6.60
2019-01-15T21:45:39.331Z,6.60
2019-01-15T21:48:27.986Z,6.60
2019-01-15T21:51:18.273Z,6.60
2019-01-15T21:54:10.128Z,6.60
2019-01-15T21:57:02.013Z,6.60
2019-01-15T22:00:03.450Z,6.60
2019-01-15T22:02:56.088Z,6.70
2019-01-15T22:05:44.068Z,6.70
2019-01-15T22:08:32.148Z,6.70
2019-01-15T22:11:19.927Z,6.70
2019-01-15T22:14:07.798Z,6.60
2019-01-15T22:16:56.883Z,6.60
2019-01-15T22:19:54.895Z,6.60
2019-01-15T22:22:51.397Z,6.60
2019-01-15T22:25:52.981Z,6.70
2019-01-15T22:28:40.934Z,6.60
2019-01-15T22:31:30.038Z,6.60
2019-01-15T22:34:31.308Z,6.60
2019-01-15T22:37:11.780Z,6.70
2019-01-15T22:39:54.987Z,6.60
2019-01-15T22:42:44.199Z,6.60
2019-01-15T22:45:33.491Z,6.60
2019-01-15T22:48:22.632Z,6.60
2019-01-15T22:51:10.543Z,6.70
2019-01-15T22:53:59.898Z,6.70
2019-01-15T22:56:44.311Z,6.70
2019-01-15T22:59:42.836Z,6.60
2019-01-15T23:02:30.713Z,6.60
2019-01-15T23:05:25.679Z,6.60
2019-01-15T23:08:14.787Z,6.60
2019-01-15T23:11:03.976Z,6.60
2019-01-15T23:14:05.195Z,6.60
2019-01-15T23:16:54.316Z,6.60
2019-01-15T23:19:42.087Z,6.60
2019-01-15T23:22:38.336Z,6.60
2019-01-15T23:25:31.095Z,6.60
2019-01-15T23:28:32.578Z,6.70
2019-01-15T23:31:37.829Z,6.70
2019-01-15T23:34:39.203Z,6.70
2019-01-15T23:37:20.877Z,6.70
2019-01-15T23:40:12.904Z,6.70
2019-01-15T23:43:14.080Z,6.70
2019-01-15T23:46:03.295Z,6.70
2019-01-15T23:48:58.423Z,6.70
2019-01-15T23:51:41.210Z,6.60
2019-01-15T23:54:27.174Z,6.60
2019-01-15T23:57:19.324Z,6.60
